Sanator, South Dakota
Current Conditions -  °F | °C
As of 6:53 PM on Friday 19 Dec 2014 (Local Time) from KCUT Reporting Station
Clear Clear  
Wind Chill: 26°   Ceiling: Unl
Heat Index: 26°   Visibility: 10mi
Dew Point: 16°   Wind: 3mph
Humidity: 66%   Direction: 260°W
Pressure: 29.92"   Gusts: NA
Location:  43.6653°N, 103.766°W
Report Text: KCUT 200153Z AUTO 26003KT 10SM CLR M03/M09 A2992 RMK AO2 SLP176 T10331089
Loading
Personal Weather Stations






























Interactive Weather Map New forecast layout! Learn more

10-Day Weather Forecast

Advertisements
Track Severe Weather on mobile